createdAt,value
2022-12-26T00:01:25.673Z,14.70
2022-12-26T00:03:56.241Z,14.70
2022-12-26T00:06:26.760Z,14.60
2022-12-26T00:08:55.685Z,14.70
2022-12-26T00:11:24.858Z,14.60
2022-12-26T00:13:56.192Z,14.70
2022-12-26T00:16:24.833Z,14.70
2022-12-26T00:18:55.157Z,14.70
2022-12-26T00:21:27.100Z,14.60
2022-12-26T00:23:56.461Z,14.60
2022-12-26T00:26:26.200Z,14.60
2022-12-26T00:28:55.640Z,14.60
2022-12-26T00:31:25.511Z,14.60
2022-12-26T00:33:55.222Z,14.60
2022-12-26T00:36:24.899Z,14.60
2022-12-26T00:38:53.215Z,14.70
2022-12-26T00:41:22.606Z,14.60
2022-12-26T00:43:51.537Z,14.60
2022-12-26T00:46:20.347Z,14.60
2022-12-26T00:48:48.845Z,14.60
2022-12-26T00:51:18.937Z,14.70
2022-12-26T00:53:47.322Z,14.70
2022-12-26T00:56:15.759Z,14.70
2022-12-26T00:58:44.595Z,14.70
2022-12-26T01:01:15.947Z,14.70
2022-12-26T01:03:45.570Z,14.70
2022-12-26T01:06:14.467Z,14.70
2022-12-26T01:08:44.080Z,14.70
2022-12-26T01:11:14.349Z,14.60
2022-12-26T01:13:43.016Z,14.60
2022-12-26T01:16:11.589Z,14.60
2022-12-26T01:18:39.753Z,14.60
2022-12-26T01:21:09.932Z,14.60
2022-12-26T01:23:38.123Z,14.70
2022-12-26T01:26:15.301Z,14.60
2022-12-26T01:28:47.691Z,14.60
2022-12-26T01:31:15.882Z,14.60
2022-12-26T01:33:44.063Z,14.60
2022-12-26T01:36:12.299Z,14.70
2022-12-26T01:38:40.502Z,14.70
2022-12-26T01:41:20.967Z,14.70
2022-12-26T01:43:57.655Z,14.70
2022-12-26T01:46:30.625Z,14.70
2022-12-26T01:49:01.133Z,14.70
2022-12-26T01:51:34.368Z,14.70
2022-12-26T01:54:38.338Z,14.70
2022-12-26T01:56:55.838Z,14.70
2022-12-26T01:59:27.698Z,14.60
2022-12-26T02:01:56.983Z,14.70
2022-12-26T02:04:48.220Z,14.60
2022-12-26T02:07:16.462Z,14.60
2022-12-26T02:09:44.742Z,14.60
2022-12-26T02:12:34.040Z,14.60
2022-12-26T02:15:08.799Z,14.60
2022-12-26T02:17:38.278Z,14.60
2022-12-26T02:20:17.627Z,14.60
2022-12-26T02:23:21.738Z,14.60
2022-12-26T02:26:39.733Z,14.70
2022-12-26T02:29:41.233Z,14.80
2022-12-26T02:32:17.409Z,14.70
2022-12-26T02:34:56.718Z,14.70
2022-12-26T02:37:40.306Z,14.70
2022-12-26T02:40:28.215Z,14.70
2022-12-26T02:43:00.255Z,14.70
2022-12-26T02:45:52.293Z,14.70
2022-12-26T02:48:32.011Z,14.70
2022-12-26T02:51:29.058Z,14.70
2022-12-26T02:54:24.910Z,14.60
2022-12-26T02:57:15.577Z,14.70
2022-12-26T03:00:08.267Z,14.80
2022-12-26T03:02:58.979Z,14.70
2022-12-26T03:05:49.820Z,14.70
2022-12-26T03:08:43.068Z,14.70
2022-12-26T03:11:28.673Z,14.80
2022-12-26T03:14:03.649Z,14.70
2022-12-26T03:16:50.642Z,14.80
2022-12-26T03:19:19.906Z,14.70
2022-12-26T03:21:49.634Z,14.80
2022-12-26T03:24:19.185Z,14.70
2022-12-26T03:26:51.713Z,14.70
2022-12-26T03:29:39.532Z,14.60
2022-12-26T03:32:10.546Z,14.60
2022-12-26T03:34:42.703Z,14.70
2022-12-26T03:37:47.604Z,14.70
2022-12-26T03:40:44.421Z,14.70
2022-12-26T03:43:41.800Z,14.60
2022-12-26T03:46:35.284Z,14.70
2022-12-26T03:49:41.465Z,14.70
2022-12-26T03:52:33.739Z,14.70
2022-12-26T03:55:27.009Z,14.70
2022-12-26T03:58:20.356Z,14.70
2022-12-26T04:01:08.174Z,14.70
2022-12-26T04:03:56.545Z,14.80
2022-12-26T04:06:46.604Z,14.80
2022-12-26T04:09:36.264Z,14.80
2022-12-26T04:12:25.727Z,14.80
2022-12-26T04:15:15.908Z,14.90
2022-12-26T04:18:06.891Z,14.80
2022-12-26T04:20:41.000Z,15.00
2022-12-26T04:23:31.853Z,15.00
2022-12-26T04:26:23.123Z,15.10
2022-12-26T04:29:10.323Z,15.10
2022-12-26T04:32:05.334Z,15.10
2022-12-26T04:34:59.032Z,15.10
2022-12-26T04:37:47.601Z,15.10
2022-12-26T04:40:38.095Z,15.10
2022-12-26T04:43:48.433Z,15.10
2022-12-26T04:46:16.385Z,15.10
2022-12-26T04:49:04.113Z,15.10
2022-12-26T04:51:32.352Z,15.10
2022-12-26T04:54:00.497Z,15.20
2022-12-26T04:56:28.718Z,15.10
2022-12-26T04:58:57.092Z,15.20
2022-12-26T05:01:43.917Z,15.10
2022-12-26T05:04:32.355Z,15.10
2022-12-26T05:07:18.821Z,15.20
2022-12-26T05:09:48.215Z,15.20
2022-12-26T05:12:16.395Z,15.20
2022-12-26T05:14:44.561Z,15.20
2022-12-26T05:17:32.733Z,15.20
2022-12-26T05:20:18.336Z,15.20
2022-12-26T05:23:04.988Z,15.20
2022-12-26T05:25:55.718Z,15.20
2022-12-26T05:28:41.307Z,15.20
2022-12-26T05:31:10.206Z,15.20
2022-12-26T05:33:56.917Z,15.10
2022-12-26T05:36:27.949Z,15.10
2022-12-26T05:38:56.895Z,15.20
2022-12-26T05:41:25.475Z,15.20
2022-12-26T05:43:53.608Z,15.20
2022-12-26T05:46:21.868Z,15.10
2022-12-26T05:48:51.594Z,15.10
2022-12-26T05:51:19.769Z,15.10
2022-12-26T05:53:48.495Z,15.10
2022-12-26T05:56:18.883Z,15.10
2022-12-26T05:58:48.114Z,15.10
2022-12-26T06:01:18.506Z,15.10
2022-12-26T06:03:49.041Z,15.10
2022-12-26T06:06:23.596Z,15.00
2022-12-26T06:08:54.385Z,14.90
2022-12-26T06:11:26.739Z,14.80
2022-12-26T06:13:55.691Z,14.80
2022-12-26T06:16:26.500Z,14.80
2022-12-26T06:18:56.831Z,14.80
2022-12-26T06:21:30.970Z,14.80
2022-12-26T06:24:00.570Z,14.80
2022-12-26T06:26:31.208Z,14.80
2022-12-26T06:29:08.240Z,14.80
2022-12-26T06:31:39.142Z,14.80
2022-12-26T06:34:09.626Z,14.80
2022-12-26T06:36:41.606Z,14.80
2022-12-26T06:39:24.297Z,14.80
2022-12-26T06:41:56.007Z,14.90
2022-12-26T06:44:24.227Z,15.00
2022-12-26T06:46:54.994Z,15.10
2022-12-26T06:49:32.183Z,15.10
2022-12-26T06:52:19.835Z,15.10
2022-12-26T06:54:51.593Z,15.10
2022-12-26T06:57:19.835Z,15.00
2022-12-26T06:59:49.161Z,15.00
2022-12-26T07:02:19.563Z,14.90
2022-12-26T07:04:48.362Z,15.00
2022-12-26T07:07:18.136Z,15.00
2022-12-26T07:09:48.740Z,14.90
2022-12-26T07:12:23.547Z,14.90
2022-12-26T07:15:03.822Z,15.00
2022-12-26T07:17:31.933Z,15.10
2022-12-26T07:20:00.122Z,15.10
2022-12-26T07:22:31.362Z,15.30
2022-12-26T07:25:02.957Z,15.30
2022-12-26T07:27:32.529Z,15.50
2022-12-26T07:30:00.692Z,15.50
2022-12-26T07:32:31.117Z,15.50
2022-12-26T07:35:10.791Z,15.50
2022-12-26T07:37:42.756Z,15.60
2022-12-26T07:40:13.716Z,15.60
2022-12-26T07:42:43.956Z,15.50
2022-12-26T07:45:13.363Z,15.50
2022-12-26T07:47:41.947Z,15.50
2022-12-26T07:50:22.075Z,15.60
2022-12-26T07:52:57.557Z,15.60
2022-12-26T07:55:26.056Z,15.60
2022-12-26T07:57:57.441Z,15.60
2022-12-26T08:00:28.071Z,15.60
2022-12-26T08:03:02.854Z,15.70
2022-12-26T08:05:35.126Z,15.60
2022-12-26T08:08:07.186Z,15.50
2022-12-26T08:10:35.320Z,15.40
2022-12-26T08:13:03.571Z,15.20
2022-12-26T08:15:38.029Z,15.00
2022-12-26T08:18:08.594Z,14.80
2022-12-26T08:20:40.720Z,14.40
2022-12-26T08:23:21.658Z,14.30
2022-12-26T08:25:52.026Z,14.10
2022-12-26T08:28:23.796Z,14.00
2022-12-26T08:30:57.397Z,14.00
2022-12-26T08:33:26.804Z,14.00
2022-12-26T08:35:57.556Z,13.80
2022-12-26T08:38:31.521Z,13.70
2022-12-26T08:41:01.622Z,13.70
2022-12-26T08:46:23.473Z,13.60
2022-12-26T08:48:55.923Z,13.40
2022-12-26T08:51:27.200Z,13.30
2022-12-26T08:53:59.132Z,13.20
2022-12-26T08:56:33.139Z,13.00
2022-12-26T08:59:03.145Z,13.00
2022-12-26T09:01:32.918Z,12.90
2022-12-26T09:04:03.459Z,12.90
2022-12-26T09:06:34.352Z,12.80
2022-12-26T09:09:10.076Z,12.80
2022-12-26T09:11:42.246Z,12.60
2022-12-26T09:14:14.331Z,12.60
2022-12-26T09:16:51.426Z,12.60
2022-12-26T09:19:21.656Z,12.40
2022-12-26T09:22:20.564Z,12.40
2022-12-26T09:24:50.969Z,12.50
2022-12-26T09:27:19.302Z,12.50
2022-12-26T09:29:48.644Z,12.50
2022-12-26T09:32:20.478Z,12.40
2022-12-26T09:34:50.734Z,12.40
2022-12-26T09:37:19.197Z,12.40
2022-12-26T09:39:56.993Z,12.30
2022-12-26T09:42:34.526Z,12.30
2022-12-26T09:45:11.923Z,12.30
2022-12-26T09:47:57.690Z,12.30
2022-12-26T09:50:41.002Z,12.30
2022-12-26T09:53:17.224Z,12.20
2022-12-26T09:55:57.929Z,12.20
2022-12-26T09:58:30.844Z,12.20
2022-12-26T10:01:08.582Z,12.20
2022-12-26T10:03:42.035Z,12.20
2022-12-26T10:06:15.620Z,12.20
2022-12-26T10:09:07.010Z,12.10
2022-12-26T10:11:58.152Z,12.00
2022-12-26T10:14:39.224Z,12.00
2022-12-26T10:17:23.377Z,11.90
2022-12-26T10:20:17.213Z,11.90
2022-12-26T10:23:14.007Z,11.90
2022-12-26T10:25:50.529Z,11.90
2022-12-26T10:28:34.623Z,12.00
2022-12-26T10:31:10.103Z,11.90
2022-12-26T10:33:48.559Z,11.90
2022-12-26T10:36:32.251Z,11.90
2022-12-26T10:39:04.437Z,11.90
2022-12-26T10:41:38.985Z,11.80
2022-12-26T10:44:15.038Z,11.80
2022-12-26T10:47:11.147Z,11.80
2022-12-26T10:49:48.343Z,11.80
2022-12-26T10:52:23.241Z,11.80
2022-12-26T10:55:27.955Z,11.90
2022-12-26T10:57:53.610Z,11.80
2022-12-26T11:00:28.310Z,11.80
2022-12-26T11:03:08.172Z,11.80
2022-12-26T11:06:06.286Z,11.80
2022-12-26T11:08:43.055Z,11.80
2022-12-26T11:11:23.937Z,11.80
2022-12-26T11:14:02.332Z,11.80
2022-12-26T11:16:39.968Z,11.80
2022-12-26T11:19:15.467Z,11.80
2022-12-26T11:21:45.937Z,11.80
2022-12-26T11:24:23.108Z,11.70
2022-12-26T11:26:56.145Z,11.70
2022-12-26T11:29:27.614Z,11.80
2022-12-26T11:32:01.180Z,11.60
2022-12-26T11:34:34.926Z,11.60
2022-12-26T11:37:08.890Z,11.70
2022-12-26T11:39:39.699Z,11.80
2022-12-26T11:42:12.338Z,11.70
2022-12-26T11:44:45.551Z,11.80
2022-12-26T11:47:33.035Z,11.80
2022-12-26T11:50:04.595Z,11.80
2022-12-26T11:52:42.126Z,11.70
2022-12-26T11:55:34.117Z,11.60
2022-12-26T11:58:14.587Z,11.60
2022-12-26T12:00:46.774Z,11.60
2022-12-26T12:03:18.872Z,11.50
2022-12-26T12:05:55.469Z,11.50
2022-12-26T12:08:40.849Z,11.40
2022-12-26T12:11:29.533Z,11.40
2022-12-26T12:14:16.182Z,11.40
2022-12-26T12:16:57.673Z,11.40
2022-12-26T12:20:00.206Z,11.40
2022-12-26T12:23:01.688Z,11.50
2022-12-26T12:25:49.291Z,11.40
2022-12-26T12:29:07.667Z,11.40
2022-12-26T12:31:48.324Z,11.50
2022-12-26T12:34:32.412Z,11.50
2022-12-26T12:37:22.215Z,11.30
2022-12-26T12:40:04.636Z,11.40
2022-12-26T12:42:50.676Z,11.30
2022-12-26T12:45:33.063Z,11.40
2022-12-26T12:48:30.636Z,11.40
2022-12-26T12:51:09.805Z,11.30
2022-12-26T12:54:22.264Z,11.30
2022-12-26T12:56:57.554Z,11.30
2022-12-26T12:59:39.969Z,11.30
2022-12-26T13:02:20.497Z,11.30
2022-12-26T13:04:56.694Z,11.20
2022-12-26T13:07:28.367Z,11.20
2022-12-26T13:10:00.721Z,11.30
2022-12-26T13:12:35.041Z,11.30
2022-12-26T13:15:07.799Z,11.30
2022-12-26T13:17:40.296Z,11.30
2022-12-26T13:20:17.061Z,11.20
2022-12-26T13:23:05.941Z,11.20
2022-12-26T13:25:40.416Z,11.20
2022-12-26T13:28:18.708Z,11.20
2022-12-26T13:30:53.316Z,11.30
2022-12-26T13:33:21.740Z,11.30
2022-12-26T13:35:55.808Z,11.30
2022-12-26T13:38:25.521Z,11.30
2022-12-26T13:41:20.817Z,11.30
2022-12-26T13:44:03.060Z,11.30
2022-12-26T13:46:38.275Z,11.30
2022-12-26T13:49:07.694Z,11.40
2022-12-26T13:51:52.902Z,11.60
2022-12-26T13:54:22.938Z,11.70
2022-12-26T13:57:17.089Z,11.70
2022-12-26T14:00:09.039Z,11.60
2022-12-26T14:03:21.063Z,11.70
2022-12-26T14:06:15.613Z,11.60
2022-12-26T14:08:55.347Z,11.50
2022-12-26T14:11:41.228Z,11.50
2022-12-26T14:14:22.901Z,11.50
2022-12-26T14:16:58.825Z,11.50
2022-12-26T14:19:43.669Z,11.60
2022-12-26T14:22:19.293Z,11.60
2022-12-26T14:24:58.722Z,11.70
2022-12-26T14:27:36.325Z,11.70
2022-12-26T14:30:21.829Z,11.60
2022-12-26T14:33:03.590Z,11.60
2022-12-26T14:35:37.241Z,11.60
2022-12-26T14:38:20.209Z,11.70
2022-12-26T14:41:01.223Z,11.70
2022-12-26T14:43:35.513Z,11.80
2022-12-26T14:46:10.632Z,11.80
2022-12-26T14:48:55.897Z,11.90
2022-12-26T14:51:40.447Z,11.90
2022-12-26T14:54:38.160Z,11.90
2022-12-26T14:57:53.661Z,11.90
2022-12-26T15:00:43.244Z,11.90
2022-12-26T15:03:43.581Z,11.80
2022-12-26T15:06:58.704Z,11.80
2022-12-26T15:10:03.584Z,11.90
2022-12-26T15:13:08.738Z,11.80
2022-12-26T15:15:48.614Z,11.90
2022-12-26T15:18:45.236Z,12.00
2022-12-26T15:21:54.992Z,12.10
2022-12-26T15:28:20.544Z,11.90
2022-12-26T15:31:19.947Z,11.90
2022-12-26T15:33:56.772Z,12.00
2022-12-26T15:36:38.053Z,11.90
2022-12-26T15:39:32.046Z,11.80
2022-12-26T15:42:25.326Z,12.10
2022-12-26T15:45:07.958Z,12.10
2022-12-26T15:47:44.111Z,11.90
2022-12-26T15:50:25.349Z,12.00
2022-12-26T15:53:05.386Z,12.00
2022-12-26T15:55:56.354Z,12.00
2022-12-26T15:59:00.901Z,11.90
2022-12-26T16:01:47.036Z,11.90
2022-12-26T16:04:22.368Z,11.90
2022-12-26T16:07:26.833Z,12.00
2022-12-26T16:09:57.966Z,12.00
2022-12-26T16:12:42.504Z,12.10
2022-12-26T16:15:17.502Z,12.10
2022-12-26T16:17:46.659Z,12.00
2022-12-26T16:20:40.085Z,11.90
2022-12-26T16:23:11.807Z,12.10
2022-12-26T16:25:39.979Z,12.00
2022-12-26T16:28:12.240Z,11.90
2022-12-26T16:30:40.446Z,11.90
2022-12-26T16:33:09.222Z,11.90
2022-12-26T16:35:41.691Z,11.90
2022-12-26T16:38:18.458Z,11.90
2022-12-26T16:40:47.934Z,12.00
2022-12-26T16:43:28.573Z,12.00
2022-12-26T16:46:00.566Z,12.00
2022-12-26T16:48:31.949Z,11.90
2022-12-26T16:51:02.986Z,12.00
2022-12-26T16:53:44.930Z,11.90
2022-12-26T16:56:26.594Z,12.00
2022-12-26T16:59:04.686Z,12.00
2022-12-26T17:01:34.350Z,12.00
2022-12-26T17:04:05.665Z,11.90
2022-12-26T17:06:36.256Z,11.90
2022-12-26T17:09:09.447Z,11.90
2022-12-26T17:11:41.543Z,11.80
2022-12-26T17:14:20.259Z,11.80
2022-12-26T17:16:48.478Z,11.80
2022-12-26T17:19:20.272Z,11.80
2022-12-26T17:22:23.230Z,11.80
2022-12-26T17:24:52.407Z,11.80
2022-12-26T17:27:23.467Z,11.80
2022-12-26T17:29:58.247Z,11.80
2022-12-26T17:32:36.963Z,11.80
2022-12-26T17:35:08.649Z,11.80
2022-12-26T17:37:36.917Z,11.90
2022-12-26T17:40:19.720Z,11.90
2022-12-26T17:42:50.258Z,12.00
2022-12-26T17:45:22.945Z,11.90
2022-12-26T17:47:52.817Z,11.90
2022-12-26T17:50:21.246Z,11.90
2022-12-26T17:52:49.825Z,12.00
2022-12-26T17:55:21.414Z,12.00
2022-12-26T17:57:49.783Z,12.00
2022-12-26T18:00:22.049Z,12.10
2022-12-26T18:02:50.647Z,12.10
2022-12-26T18:05:19.883Z,12.10
2022-12-26T18:07:50.052Z,12.10
2022-12-26T18:10:21.272Z,12.10
2022-12-26T18:12:49.992Z,12.10
2022-12-26T18:15:20.846Z,12.00
2022-12-26T18:17:50.941Z,12.10
2022-12-26T18:20:21.278Z,12.10
2022-12-26T18:22:49.920Z,12.10
2022-12-26T18:25:19.498Z,12.10
2022-12-26T18:27:47.932Z,12.10
2022-12-26T18:30:17.977Z,12.10
2022-12-26T18:32:48.486Z,12.10
2022-12-26T18:35:17.240Z,12.00
2022-12-26T18:37:49.406Z,12.00
2022-12-26T18:40:30.791Z,12.00
2022-12-26T18:42:59.183Z,12.00
2022-12-26T18:45:27.512Z,11.90
2022-12-26T18:47:57.179Z,11.80
2022-12-26T18:50:26.036Z,11.70
2022-12-26T18:52:54.365Z,10.80
2022-12-26T18:55:22.806Z,9.90
2022-12-26T18:57:51.404Z,9.60
2022-12-26T19:00:21.894Z,9.50
2022-12-26T19:02:50.401Z,9.60
2022-12-26T19:05:21.849Z,9.60
2022-12-26T19:07:50.538Z,9.60
2022-12-26T19:10:22.143Z,9.60
2022-12-26T19:12:50.721Z,9.60
2022-12-26T19:15:19.129Z,9.60
2022-12-26T19:17:47.421Z,9.60
2022-12-26T19:20:21.980Z,9.50
2022-12-26T19:22:51.190Z,9.50
2022-12-26T19:25:20.981Z,9.50
2022-12-26T19:27:49.911Z,9.40
2022-12-26T19:30:18.956Z,9.40
2022-12-26T19:32:47.556Z,9.50
2022-12-26T19:35:16.168Z,9.50
2022-12-26T19:37:45.766Z,9.60
2022-12-26T19:40:21.258Z,9.60
2022-12-26T19:42:52.907Z,9.50
2022-12-26T19:45:21.379Z,9.50
2022-12-26T19:47:49.638Z,9.50
2022-12-26T19:50:17.822Z,9.50
2022-12-26T19:52:47.340Z,9.50
2022-12-26T19:55:15.459Z,9.40
2022-12-26T19:57:43.602Z,9.50
2022-12-26T20:00:13.404Z,9.60
2022-12-26T20:02:41.671Z,9.60
2022-12-26T20:05:11.109Z,9.60
2022-12-26T20:07:39.353Z,9.70
2022-12-26T20:10:09.354Z,9.80
2022-12-26T20:12:37.576Z,9.80
2022-12-26T20:15:06.417Z,9.90
2022-12-26T20:17:34.546Z,10.00
2022-12-26T20:20:02.768Z,10.10
2022-12-26T20:22:31.272Z,10.10
2022-12-26T20:24:59.523Z,10.10
2022-12-26T20:27:29.154Z,10.10
2022-12-26T20:29:57.272Z,10.20
2022-12-26T20:32:25.412Z,10.20
2022-12-26T20:34:53.587Z,10.20
2022-12-26T20:37:21.765Z,10.20
2022-12-26T20:39:49.924Z,10.30
2022-12-26T20:42:19.599Z,10.30
2022-12-26T20:44:49.135Z,10.30
2022-12-26T20:47:17.512Z,10.30
2022-12-26T20:49:45.722Z,10.20
2022-12-26T20:52:13.891Z,10.20
2022-12-26T20:54:42.066Z,10.10
2022-12-26T20:57:10.210Z,10.10
2022-12-26T20:59:38.409Z,10.10
2022-12-26T21:02:15.572Z,10.10
2022-12-26T21:04:47.252Z,10.10
2022-12-26T21:07:18.021Z,10.10
2022-12-26T21:09:46.843Z,10.00
2022-12-26T21:12:16.881Z,10.00
2022-12-26T21:14:55.221Z,9.90
2022-12-26T21:17:24.836Z,9.90
2022-12-26T21:19:55.738Z,9.90
2022-12-26T21:22:24.296Z,9.90
2022-12-26T21:24:52.494Z,9.90
2022-12-26T21:27:20.564Z,9.90
2022-12-26T21:29:49.024Z,9.90
2022-12-26T21:32:17.214Z,9.90
2022-12-26T21:34:46.941Z,9.80
2022-12-26T21:37:32.493Z,9.80
2022-12-26T21:40:00.665Z,9.70
2022-12-26T21:42:28.802Z,9.70
2022-12-26T21:44:57.021Z,9.60
2022-12-26T21:47:25.188Z,9.60
2022-12-26T21:49:54.662Z,9.70
2022-12-26T21:52:22.867Z,9.80
2022-12-26T21:55:08.527Z,9.70
2022-12-26T21:57:36.823Z,9.70
2022-12-26T22:00:06.328Z,9.70
2022-12-26T22:02:53.842Z,9.60
2022-12-26T22:05:24.761Z,9.50
2022-12-26T22:07:54.863Z,9.60
2022-12-26T22:10:40.850Z,9.60
2022-12-26T22:13:09.578Z,9.50
2022-12-26T22:16:00.242Z,9.50
2022-12-26T22:18:28.698Z,9.50
2022-12-26T22:21:01.772Z,9.60
2022-12-26T22:23:29.916Z,9.60
2022-12-26T22:25:58.574Z,9.60
2022-12-26T22:28:29.071Z,9.50
2022-12-26T22:30:57.708Z,9.50
2022-12-26T22:33:26.022Z,9.50
2022-12-26T22:35:54.179Z,9.40
2022-12-26T22:38:23.898Z,9.50
2022-12-26T22:40:57.238Z,9.50
2022-12-26T22:43:26.232Z,9.30
2022-12-26T22:45:55.249Z,9.30
2022-12-26T22:48:24.655Z,9.40
2022-12-26T22:50:54.540Z,9.40
2022-12-26T22:53:25.640Z,9.40
2022-12-26T22:56:00.466Z,9.30
2022-12-26T22:58:29.872Z,9.30
2022-12-26T23:00:58.494Z,9.20
2022-12-26T23:03:27.653Z,9.10
2022-12-26T23:05:56.640Z,9.10
2022-12-26T23:08:28.264Z,9.10
2022-12-26T23:10:58.875Z,8.90
2022-12-26T23:13:27.819Z,8.80
2022-12-26T23:16:02.896Z,8.80
2022-12-26T23:18:53.652Z,8.80
2022-12-26T23:21:42.035Z,8.80
2022-12-26T23:24:16.922Z,8.80
2022-12-26T23:26:47.789Z,8.80
2022-12-26T23:29:36.143Z,8.80
2022-12-26T23:32:04.632Z,8.80
2022-12-26T23:34:33.092Z,8.80
2022-12-26T23:37:01.548Z,8.80
2022-12-26T23:39:31.086Z,8.80
2022-12-26T23:41:59.267Z,8.90
2022-12-26T23:44:27.425Z,8.80
2022-12-26T23:46:56.731Z,8.80
2022-12-26T23:49:24.880Z,8.80
2022-12-26T23:51:53.006Z,8.70
2022-12-26T23:54:21.533Z,8.60
2022-12-26T23:56:51.111Z,8.60
2022-12-26T23:59:19.797Z,8.50
